Aviation Digital Data Service (ADDS)

Output produced by METARs form (1323 UTC 15 November 2018)
found at http://www.aviationweather.gov/metar/data/
 
MNMG 150900Z 1512/1612 16006KT 9999 FEW020 
     TEMPO 1514/1520 08014G24KT FEW025 SCT070 
     TEMPO 1521/1603 13010KT FEW022